»·PEaware :: WAT380 KSBA-KSFO

WAT380 :: KSBA-KSFO

FLIGHT INFORMATION

Flight Status: Arrived
Operator:
Walker Air Transport
More flights by this operator :: More flights under this callsign
Pilot: Spencer M. (27733)
Aircraft: FOKKER 50 MARITIME ENFORCER
(F50)
More flights by this aircraft type
Origin: KSBA Santa Barbara Mun
United States
Destination: KSFO San Francisco Intl
United States
More flights between these airports :: More routes between these airports
Route: GVO MQO V27 BSR OSI
File this flight plan on PilotEdge
Remarks:
Altitude:
(Current/Filed)
12,000ft
Speed:
(Current/Filed)
210kts
Departed: 10-Aug-21 11:40 AM
Arrived: 10-Aug-21 12:44 PM
Distance/Time
Traveled:
228nm/1:03
Distance/Time
To Go:
Arrived

Flight Plot

Page will automatically refresh every two minutes.


Map Options




Map Legend


Flown Route
Filed Route
Departure Airport
Arrival Airport
Navaid (VOR, NDB)
Fix

Horizontal Profiles

Position Reports

Time Latitude Longitude Heading Altitude Ground
Speed
10-Aug-21 11:23 34.424043 -119.836900 78 16ft 0kts
10-Aug-21 11:24 34.424043 -119.836900 78 16ft 0kts
10-Aug-21 11:25 34.424043 -119.836900 78 16ft 0kts
10-Aug-21 11:26 34.424043 -119.836900 78 16ft 0kts
10-Aug-21 11:27 34.424043 -119.836900 78 16ft 0kts
10-Aug-21 11:28 34.424043 -119.836900 78 16ft 0kts
10-Aug-21 11:29 34.424043 -119.836900 78 16ft 0kts
10-Aug-21 11:30 34.424043 -119.836900 78 16ft 0kts
10-Aug-21 11:31 34.424043 -119.836900 78 16ft 0kts
10-Aug-21 11:32 34.424043 -119.836900 78 16ft 0kts
10-Aug-21 11:33 34.424043 -119.836900 78 16ft 0kts
10-Aug-21 11:34 34.424043 -119.836900 78 16ft 0kts
10-Aug-21 11:35 34.424104 -119.836888 317 16ft 0kts
10-Aug-21 11:36 34.425072 -119.837843 345 15ft 6kts
10-Aug-21 11:37 34.426707 -119.837802 81 16ft 7kts
10-Aug-21 11:38 34.427396 -119.834704 0 16ft 9kts
10-Aug-21 11:39 34.427643 -119.848578 268 52ft 129kts
10-Aug-21 11:40 34.425660 -119.899263 272 1591ft 166kts
10-Aug-21 11:41 34.422030 -119.959981 263 2885ft 198kts
10-Aug-21 11:42 34.416334 -120.028536 265 3577ft 195kts
10-Aug-21 11:43 34.417677 -120.093674 300 4499ft 199kts
10-Aug-21 11:44 34.453047 -120.145393 319 5435ft 203kts
10-Aug-21 11:45 34.502346 -120.174179 352 6576ft 204kts
10-Aug-21 11:46 34.543217 -120.216466 308 7592ft 207kts
10-Aug-21 11:47 34.589301 -120.258960 324 8526ft 210kts
10-Aug-21 11:48 34.637085 -120.300558 324 9274ft 213kts
10-Aug-21 11:49 34.685774 -120.342590 324 9934ft 217kts
10-Aug-21 11:50 34.735698 -120.384738 325 10550ft 220kts
10-Aug-21 11:51 34.793085 -120.410654 343 11116ft 224kts
10-Aug-21 11:52 34.849792 -120.442724 329 11626ft 227kts
10-Aug-21 11:53 34.903521 -120.483708 326 12002ft 234kts
10-Aug-21 11:54 34.960298 -120.527913 327 12006ft 255kts
10-Aug-21 11:55 35.022358 -120.575926 327 12001ft 270kts
10-Aug-21 11:56 35.086199 -120.625687 327 12000ft 273kts
10-Aug-21 11:57 35.149960 -120.675726 326 11997ft 273kts
10-Aug-21 11:58 35.213953 -120.726103 326 11997ft 273kts
10-Aug-21 11:59 35.271352 -120.785133 307 11997ft 270kts
10-Aug-21 12:00 35.313846 -120.851184 306 12033ft 269kts
10-Aug-21 12:01 35.358976 -120.922056 306 12034ft 269kts
10-Aug-21 12:02 35.405017 -120.994346 306 12025ft 270kts
10-Aug-21 12:03 35.451169 -121.066968 306 12017ft 270kts
10-Aug-21 12:04 35.497243 -121.139626 306 12010ft 269kts
10-Aug-21 12:05 35.543067 -121.212034 306 12007ft 268kts
10-Aug-21 12:06 35.588824 -121.284482 306 12007ft 268kts
10-Aug-21 12:07 35.636700 -121.354182 324 12015ft 269kts
10-Aug-21 12:08 35.704666 -121.392725 338 12008ft 270kts
10-Aug-21 12:09 35.774301 -121.427465 337 12007ft 270kts
10-Aug-21 12:10 35.826409 -121.454304 337 12008ft 270kts
10-Aug-21 12:11 35.895524 -121.490156 337 12019ft 270kts
10-Aug-21 12:12 35.964581 -121.526026 337 12035ft 270kts
10-Aug-21 12:13 36.033522 -121.561890 337 12045ft 270kts
10-Aug-21 12:14 36.098531 -121.595791 337 12045ft 270kts
10-Aug-21 12:15 36.167642 -121.631912 337 12043ft 269kts
10-Aug-21 12:16 36.236733 -121.667867 336 12001ft 270kts
10-Aug-21 12:17 36.305896 -121.703800 336 12007ft 269kts
10-Aug-21 12:18 36.374925 -121.739767 336 12007ft 269kts
10-Aug-21 12:19 36.444168 -121.775924 336 11998ft 270kts
10-Aug-21 12:20 36.513180 -121.812029 337 11991ft 270kts
10-Aug-21 12:21 36.582509 -121.848384 337 11971ft 270kts
10-Aug-21 12:22 36.651686 -121.884740 337 11953ft 270kts
10-Aug-21 12:23 36.720615 -121.921027 337 11953ft 270kts
10-Aug-21 12:24 36.789805 -121.957501 337 11956ft 270kts
10-Aug-21 12:25 36.858714 -121.993890 337 11961ft 270kts
10-Aug-21 12:26 36.928072 -122.030594 337 11965ft 271kts
10-Aug-21 12:27 36.997354 -122.067314 337 11970ft 271kts
10-Aug-21 12:28 37.066634 -122.104106 337 11974ft 271kts
10-Aug-21 12:29 37.136105 -122.141147 337 11975ft 269kts
10-Aug-21 12:30 37.200970 -122.177103 337 10808ft 243kts
10-Aug-21 12:31 37.261916 -122.209625 337 8799ft 236kts
10-Aug-21 12:33 37.321059 -122.236676 13 7089ft 216kts
10-Aug-21 12:34 37.370338 -122.201729 33 5708ft 197kts
10-Aug-21 12:35 37.416903 -122.168477 33 4297ft 189kts
10-Aug-21 12:36 37.456617 -122.137218 33 3572ft 155kts
10-Aug-21 12:37 37.495329 -122.128887 324 2971ft 156kts
10-Aug-21 12:38 37.529306 -122.166641 305 2960ft 167kts
10-Aug-21 12:39 37.553181 -122.218876 298 2388ft 175kts
10-Aug-21 12:40 37.572126 -122.264040 299 1609ft 121kts
10-Aug-21 12:41 37.587054 -122.299729 301 1048ft 117kts
10-Aug-21 12:42 37.602068 -122.335645 301 476ft 113kts
10-Aug-21 12:43 37.616720 -122.370233 301 18ft 96kts
10-Aug-21 12:44 37.619240 -122.380000 244 17ft 6kts
10-Aug-21 12:45 37.619475 -122.382655 241 16ft 10kts
10-Aug-21 12:46 37.619398 -122.383614 272 16ft 0kts

Navigation Log

Ident Type
Flight plan parsing failed, navigation log unavailable